sensor_id;sensor_type;location;lat;lon;timestamp;P1;durP1;ratioP1;P2;durP2;ratioP2
8060;SDS011;4073;42.626;25.386;2023-02-28T00:00:10;15.50;;;11.40;;
8060;SDS011;4073;42.626;25.386;2023-02-28T00:02:37;13.00;;;10.93;;
8060;SDS011;4073;42.626;25.386;2023-02-28T00:05:04;15.23;;;11.17;;
8060;SDS011;4073;42.626;25.386;2023-02-28T00:07:30;13.40;;;11.57;;
8060;SDS011;4073;42.626;25.386;2023-02-28T00:09:56;14.27;;;11.13;;
8060;SDS011;4073;42.626;25.386;2023-02-28T00:12:21;14.73;;;11.20;;
8060;SDS011;4073;42.626;25.386;2023-02-28T00:14:47;16.93;;;11.43;;
8060;SDS011;4073;42.626;25.386;2023-02-28T00:17:13;14.70;;;11.67;;
8060;SDS011;4073;42.626;25.386;2023-02-28T00:19:39;15.03;;;11.80;;
8060;SDS011;4073;42.626;25.386;2023-02-28T00:22:04;17.67;;;12.07;;
8060;SDS011;4073;42.626;25.386;2023-02-28T00:24:30;20.70;;;11.97;;
8060;SDS011;4073;42.626;25.386;2023-02-28T00:26:56;14.97;;;11.27;;
8060;SDS011;4073;42.626;25.386;2023-02-28T00:29:21;15.43;;;11.93;;
8060;SDS011;4073;42.626;25.386;2023-02-28T00:31:46;13.87;;;12.07;;
8060;SDS011;4073;42.626;25.386;2023-02-28T00:34:12;14.63;;;11.57;;
8060;SDS011;4073;42.626;25.386;2023-02-28T00:36:37;16.67;;;12.77;;
8060;SDS011;4073;42.626;25.386;2023-02-28T00:39:03;13.63;;;12.23;;
8060;SDS011;4073;42.626;25.386;2023-02-28T00:41:28;14.33;;;12.83;;
8060;SDS011;4073;42.626;25.386;2023-02-28T00:43:54;21.17;;;12.10;;
8060;SDS011;4073;42.626;25.386;2023-02-28T00:46:19;20.30;;;12.17;;
8060;SDS011;4073;42.626;25.386;2023-02-28T00:48:45;15.13;;;12.23;;
8060;SDS011;4073;42.626;25.386;2023-02-28T00:51:10;15.80;;;12.20;;
8060;SDS011;4073;42.626;25.386;2023-02-28T00:53:36;17.23;;;12.60;;
8060;SDS011;4073;42.626;25.386;2023-02-28T00:56:01;15.90;;;11.53;;
8060;SDS011;4073;42.626;25.386;2023-02-28T00:58:28;14.57;;;12.10;;
8060;SDS011;4073;42.626;25.386;2023-02-28T01:00:54;13.10;;;11.30;;
8060;SDS011;4073;42.626;25.386;2023-02-28T01:03:19;15.30;;;11.67;;
8060;SDS011;4073;42.626;25.386;2023-02-28T01:05:46;16.33;;;12.20;;
8060;SDS011;4073;42.626;25.386;2023-02-28T01:08:12;15.77;;;11.50;;
8060;SDS011;4073;42.626;25.386;2023-02-28T01:10:39;14.00;;;12.60;;
8060;SDS011;4073;42.626;25.386;2023-02-28T01:13:04;16.47;;;12.23;;
8060;SDS011;4073;42.626;25.386;2023-02-28T01:15:30;14.13;;;12.07;;
8060;SDS011;4073;42.626;25.386;2023-02-28T01:17:57;16.87;;;13.40;;
8060;SDS011;4073;42.626;25.386;2023-02-28T01:20:22;15.00;;;11.90;;
8060;SDS011;4073;42.626;25.386;2023-02-28T01:22:48;13.73;;;12.23;;
8060;SDS011;4073;42.626;25.386;2023-02-28T01:25:13;12.93;;;11.53;;
8060;SDS011;4073;42.626;25.386;2023-02-28T01:27:39;16.03;;;12.43;;
8060;SDS011;4073;42.626;25.386;2023-02-28T01:30:05;16.33;;;12.13;;
8060;SDS011;4073;42.626;25.386;2023-02-28T01:32:31;17.87;;;12.37;;
8060;SDS011;4073;42.626;25.386;2023-02-28T01:34:57;16.63;;;11.13;;
8060;SDS011;4073;42.626;25.386;2023-02-28T01:37:22;23.00;;;12.77;;
8060;SDS011;4073;42.626;25.386;2023-02-28T01:39:48;15.40;;;11.80;;
8060;SDS011;4073;42.626;25.386;2023-02-28T01:42:13;12.97;;;11.20;;
8060;SDS011;4073;42.626;25.386;2023-02-28T01:44:55;19.40;;;11.77;;
8060;SDS011;4073;42.626;25.386;2023-02-28T01:47:33;17.33;;;12.77;;
8060;SDS011;4073;42.626;25.386;2023-02-28T01:50:02;15.90;;;10.90;;
8060;SDS011;4073;42.626;25.386;2023-02-28T01:52:30;14.63;;;11.37;;
8060;SDS011;4073;42.626;25.386;2023-02-28T01:54:58;16.87;;;11.10;;
8060;SDS011;4073;42.626;25.386;2023-02-28T01:57:27;15.93;;;12.90;;
8060;SDS011;4073;42.626;25.386;2023-02-28T02:00:03;12.43;;;10.87;;
8060;SDS011;4073;42.626;25.386;2023-02-28T02:02:32;15.00;;;11.60;;
8060;SDS011;4073;42.626;25.386;2023-02-28T02:07:32;18.90;;;11.63;;
8060;SDS011;4073;42.626;25.386;2023-02-28T02:10:02;14.70;;;10.80;;
8060;SDS011;4073;42.626;25.386;2023-02-28T02:15:15;13.90;;;11.93;;
8060;SDS011;4073;42.626;25.386;2023-02-28T02:17:47;15.40;;;11.77;;
8060;SDS011;4073;42.626;25.386;2023-02-28T02:36:54;14.07;;;12.27;;
8060;SDS011;4073;42.626;25.386;2023-02-28T02:39:25;19.77;;;13.13;;
8060;SDS011;4073;42.626;25.386;2023-02-28T02:41:58;16.97;;;12.67;;
8060;SDS011;4073;42.626;25.386;2023-02-28T02:44:36;16.80;;;13.10;;
8060;SDS011;4073;42.626;25.386;2023-02-28T02:47:18;15.40;;;12.70;;
8060;SDS011;4073;42.626;25.386;2023-02-28T02:49:47;15.13;;;13.37;;
8060;SDS011;4073;42.626;25.386;2023-02-28T02:52:17;17.17;;;13.17;;
8060;SDS011;4073;42.626;25.386;2023-02-28T02:54:46;26.20;;;18.70;;
8060;SDS011;4073;42.626;25.386;2023-02-28T02:57:15;19.83;;;14.87;;
8060;SDS011;4073;42.626;25.386;2023-02-28T02:59:46;15.33;;;12.47;;
8060;SDS011;4073;42.626;25.386;2023-02-28T03:02:14;14.70;;;12.33;;
8060;SDS011;4073;42.626;25.386;2023-02-28T03:04:43;15.90;;;14.07;;
8060;SDS011;4073;42.626;25.386;2023-02-28T03:07:18;19.73;;;15.10;;
8060;SDS011;4073;42.626;25.386;2023-02-28T03:09:54;17.87;;;14.07;;
8060;SDS011;4073;42.626;25.386;2023-02-28T03:12:22;16.33;;;13.17;;
8060;SDS011;4073;42.626;25.386;2023-02-28T03:14:59;18.67;;;15.17;;
8060;SDS011;4073;42.626;25.386;2023-02-28T03:23:27;22.70;;;15.73;;
8060;SDS011;4073;42.626;25.386;2023-02-28T03:26:07;20.67;;;15.23;;
8060;SDS011;4073;42.626;25.386;2023-02-28T03:28:53;23.93;;;16.37;;
8060;SDS011;4073;42.626;25.386;2023-02-28T03:31:41;20.33;;;16.90;;
8060;SDS011;4073;42.626;25.386;2023-02-28T03:34:26;22.33;;;15.23;;
8060;SDS011;4073;42.626;25.386;2023-02-28T03:37:01;23.03;;;15.80;;
8060;SDS011;4073;42.626;25.386;2023-02-28T03:42:27;20.10;;;16.50;;
8060;SDS011;4073;42.626;25.386;2023-02-28T03:45:29;18.53;;;15.53;;
8060;SDS011;4073;42.626;25.386;2023-02-28T03:48:01;23.53;;;16.83;;
8060;SDS011;4073;42.626;25.386;2023-02-28T03:50:39;21.13;;;16.03;;
8060;SDS011;4073;42.626;25.386;2023-02-28T03:53:12;26.77;;;17.60;;
8060;SDS011;4073;42.626;25.386;2023-02-28T03:55:42;24.07;;;16.70;;
8060;SDS011;4073;42.626;25.386;2023-02-28T04:00:56;28.57;;;19.87;;
8060;SDS011;4073;42.626;25.386;2023-02-28T04:03:32;26.50;;;19.87;;
8060;SDS011;4073;42.626;25.386;2023-02-28T04:05:58;30.00;;;20.77;;
8060;SDS011;4073;42.626;25.386;2023-02-28T04:08:24;28.87;;;21.13;;
8060;SDS011;4073;42.626;25.386;2023-02-28T04:10:51;25.97;;;19.33;;
8060;SDS011;4073;42.626;25.386;2023-02-28T04:13:21;24.80;;;18.30;;
8060;SDS011;4073;42.626;25.386;2023-02-28T04:15:47;29.40;;;20.43;;
8060;SDS011;4073;42.626;25.386;2023-02-28T04:18:12;34.00;;;20.60;;
8060;SDS011;4073;42.626;25.386;2023-02-28T04:20:37;26.43;;;18.73;;
8060;SDS011;4073;42.626;25.386;2023-02-28T04:23:03;30.07;;;19.87;;
8060;SDS011;4073;42.626;25.386;2023-02-28T04:25:28;24.70;;;18.30;;
8060;SDS011;4073;42.626;25.386;2023-02-28T04:27:54;29.37;;;19.23;;
8060;SDS011;4073;42.626;25.386;2023-02-28T04:30:19;28.27;;;18.93;;
8060;SDS011;4073;42.626;25.386;2023-02-28T04:32:45;27.83;;;18.73;;
8060;SDS011;4073;42.626;25.386;2023-02-28T04:35:10;22.30;;;18.50;;
8060;SDS011;4073;42.626;25.386;2023-02-28T04:37:35;26.30;;;18.07;;
8060;SDS011;4073;42.626;25.386;2023-02-28T04:40:02;26.20;;;19.07;;
8060;SDS011;4073;42.626;25.386;2023-02-28T04:42:28;25.57;;;18.57;;
8060;SDS011;4073;42.626;25.386;2023-02-28T04:45:00;26.00;;;19.63;;
8060;SDS011;4073;42.626;25.386;2023-02-28T04:47:27;25.43;;;19.30;;
8060;SDS011;4073;42.626;25.386;2023-02-28T04:49:52;23.90;;;18.47;;
8060;SDS011;4073;42.626;25.386;2023-02-28T04:52:17;24.50;;;17.93;;
8060;SDS011;4073;42.626;25.386;2023-02-28T04:54:43;25.90;;;18.40;;
8060;SDS011;4073;42.626;25.386;2023-02-28T04:57:08;26.80;;;20.40;;
8060;SDS011;4073;42.626;25.386;2023-02-28T04:59:34;24.50;;;19.80;;
8060;SDS011;4073;42.626;25.386;2023-02-28T05:01:59;28.27;;;19.23;;
8060;SDS011;4073;42.626;25.386;2023-02-28T05:04:24;32.53;;;20.40;;
8060;SDS011;4073;42.626;25.386;2023-02-28T05:06:50;27.27;;;21.63;;
8060;SDS011;4073;42.626;25.386;2023-02-28T05:09:15;32.70;;;23.10;;
8060;SDS011;4073;42.626;25.386;2023-02-28T05:11:41;32.53;;;21.13;;
8060;SDS011;4073;42.626;25.386;2023-02-28T05:14:09;31.63;;;21.00;;
8060;SDS011;4073;42.626;25.386;2023-02-28T05:16:36;31.60;;;22.77;;
8060;SDS011;4073;42.626;25.386;2023-02-28T05:19:02;34.00;;;23.23;;
8060;SDS011;4073;42.626;25.386;2023-02-28T05:21:32;31.80;;;23.53;;
8060;SDS011;4073;42.626;25.386;2023-02-28T05:23:58;33.17;;;21.70;;
8060;SDS011;4073;42.626;25.386;2023-02-28T05:26:28;31.43;;;23.20;;
8060;SDS011;4073;42.626;25.386;2023-02-28T05:28:54;35.30;;;23.87;;
8060;SDS011;4073;42.626;25.386;2023-02-28T05:31:20;32.27;;;22.30;;
8060;SDS011;4073;42.626;25.386;2023-02-28T05:33:45;32.10;;;22.63;;
8060;SDS011;4073;42.626;25.386;2023-02-28T05:36:11;31.53;;;21.93;;
8060;SDS011;4073;42.626;25.386;2023-02-28T05:38:36;36.13;;;23.97;;
8060;SDS011;4073;42.626;25.386;2023-02-28T05:41:06;29.87;;;22.03;;
8060;SDS011;4073;42.626;25.386;2023-02-28T05:43:32;33.73;;;23.10;;
8060;SDS011;4073;42.626;25.386;2023-02-28T05:45:58;38.00;;;27.33;;
8060;SDS011;4073;42.626;25.386;2023-02-28T05:48:24;38.00;;;26.33;;
8060;SDS011;4073;42.626;25.386;2023-02-28T05:50:50;39.07;;;26.83;;
8060;SDS011;4073;42.626;25.386;2023-02-28T05:53:16;35.30;;;23.57;;
8060;SDS011;4073;42.626;25.386;2023-02-28T05:55:41;37.43;;;25.67;;
8060;SDS011;4073;42.626;25.386;2023-02-28T05:58:07;36.80;;;24.87;;
8060;SDS011;4073;42.626;25.386;2023-02-28T06:00:33;33.73;;;23.60;;
8060;SDS011;4073;42.626;25.386;2023-02-28T06:02:58;38.57;;;26.77;;
8060;SDS011;4073;42.626;25.386;2023-02-28T06:05:26;36.00;;;24.07;;
8060;SDS011;4073;42.626;25.386;2023-02-28T06:07:52;38.40;;;23.77;;
8060;SDS011;4073;42.626;25.386;2023-02-28T06:10:18;33.47;;;23.47;;
8060;SDS011;4073;42.626;25.386;2023-02-28T06:12:44;32.37;;;23.37;;
8060;SDS011;4073;42.626;25.386;2023-02-28T06:15:13;38.40;;;23.07;;
8060;SDS011;4073;42.626;25.386;2023-02-28T06:17:40;38.40;;;24.53;;
8060;SDS011;4073;42.626;25.386;2023-02-28T06:20:06;32.47;;;23.13;;
8060;SDS011;4073;42.626;25.386;2023-02-28T06:22:33;35.30;;;23.40;;
8060;SDS011;4073;42.626;25.386;2023-02-28T06:25:00;35.90;;;23.33;;
8060;SDS011;4073;42.626;25.386;2023-02-28T06:27:25;32.00;;;22.73;;
8060;SDS011;4073;42.626;25.386;2023-02-28T06:29:53;32.23;;;20.93;;
8060;SDS011;4073;42.626;25.386;2023-02-28T06:32:20;36.67;;;23.03;;
8060;SDS011;4073;42.626;25.386;2023-02-28T06:34:46;33.80;;;23.20;;
8060;SDS011;4073;42.626;25.386;2023-02-28T06:37:12;36.13;;;24.57;;
8060;SDS011;4073;42.626;25.386;2023-02-28T06:39:37;34.43;;;24.07;;
8060;SDS011;4073;42.626;25.386;2023-02-28T06:42:03;35.33;;;25.20;;
8060;SDS011;4073;42.626;25.386;2023-02-28T06:44:28;39.53;;;25.73;;
8060;SDS011;4073;42.626;25.386;2023-02-28T06:47:00;35.47;;;23.17;;
8060;SDS011;4073;42.626;25.386;2023-02-28T06:49:28;33.03;;;20.63;;
8060;SDS011;4073;42.626;25.386;2023-02-28T06:51:54;30.03;;;21.77;;
8060;SDS011;4073;42.626;25.386;2023-02-28T06:54:20;40.40;;;22.67;;
8060;SDS011;4073;42.626;25.386;2023-02-28T06:56:45;32.53;;;24.83;;
8060;SDS011;4073;42.626;25.386;2023-02-28T06:59:12;34.63;;;24.20;;
8060;SDS011;4073;42.626;25.386;2023-02-28T07:01:37;30.53;;;22.67;;
8060;SDS011;4073;42.626;25.386;2023-02-28T07:04:04;33.60;;;24.97;;
8060;SDS011;4073;42.626;25.386;2023-02-28T07:06:31;31.30;;;20.03;;
8060;SDS011;4073;42.626;25.386;2023-02-28T07:08:57;23.97;;;17.93;;
8060;SDS011;4073;42.626;25.386;2023-02-28T07:11:23;22.10;;;15.13;;
8060;SDS011;4073;42.626;25.386;2023-02-28T07:13:55;25.97;;;15.93;;
8060;SDS011;4073;42.626;25.386;2023-02-28T07:16:22;20.90;;;14.37;;
8060;SDS011;4073;42.626;25.386;2023-02-28T07:18:48;21.73;;;13.87;;
8060;SDS011;4073;42.626;25.386;2023-02-28T07:21:14;18.83;;;13.30;;
8060;SDS011;4073;42.626;25.386;2023-02-28T07:23:40;18.43;;;14.30;;
8060;SDS011;4073;42.626;25.386;2023-02-28T07:26:07;21.67;;;14.60;;
8060;SDS011;4073;42.626;25.386;2023-02-28T07:28:36;19.37;;;13.93;;
8060;SDS011;4073;42.626;25.386;2023-02-28T07:31:06;23.33;;;13.17;;
8060;SDS011;4073;42.626;25.386;2023-02-28T07:33:32;19.93;;;11.73;;
8060;SDS011;4073;42.626;25.386;2023-02-28T07:36:03;15.27;;;11.87;;
8060;SDS011;4073;42.626;25.386;2023-02-28T07:38:33;16.17;;;11.20;;
8060;SDS011;4073;42.626;25.386;2023-02-28T07:41:00;13.83;;;9.83;;
8060;SDS011;4073;42.626;25.386;2023-02-28T07:43:29;16.70;;;10.33;;
8060;SDS011;4073;42.626;25.386;2023-02-28T07:45:55;15.87;;;9.73;;
8060;SDS011;4073;42.626;25.386;2023-02-28T07:48:26;14.43;;;8.10;;
8060;SDS011;4073;42.626;25.386;2023-02-28T07:50:55;13.10;;;8.80;;
8060;SDS011;4073;42.626;25.386;2023-02-28T07:53:21;13.90;;;10.13;;
8060;SDS011;4073;42.626;25.386;2023-02-28T07:55:47;20.33;;;13.50;;
8060;SDS011;4073;42.626;25.386;2023-02-28T07:58:13;18.00;;;12.73;;
8060;SDS011;4073;42.626;25.386;2023-02-28T08:00:38;18.70;;;14.23;;
8060;SDS011;4073;42.626;25.386;2023-02-28T08:03:04;22.20;;;14.30;;
8060;SDS011;4073;42.626;25.386;2023-02-28T08:05:29;25.33;;;16.63;;
8060;SDS011;4073;42.626;25.386;2023-02-28T08:07:55;22.00;;;14.80;;
8060;SDS011;4073;42.626;25.386;2023-02-28T08:10:21;24.97;;;14.97;;
8060;SDS011;4073;42.626;25.386;2023-02-28T08:12:47;24.80;;;14.97;;
8060;SDS011;4073;42.626;25.386;2023-02-28T08:15:12;20.00;;;12.37;;
8060;SDS011;4073;42.626;25.386;2023-02-28T08:17:38;19.47;;;11.43;;
8060;SDS011;4073;42.626;25.386;2023-02-28T08:20:04;20.33;;;11.73;;
8060;SDS011;4073;42.626;25.386;2023-02-28T08:22:30;30.10;;;12.60;;
8060;SDS011;4073;42.626;25.386;2023-02-28T08:24:55;24.20;;;13.10;;
8060;SDS011;4073;42.626;25.386;2023-02-28T08:27:20;23.13;;;12.90;;
8060;SDS011;4073;42.626;25.386;2023-02-28T08:29:46;21.37;;;13.03;;
8060;SDS011;4073;42.626;25.386;2023-02-28T08:32:11;24.43;;;13.13;;
8060;SDS011;4073;42.626;25.386;2023-02-28T08:34:38;36.87;;;13.53;;
8060;SDS011;4073;42.626;25.386;2023-02-28T08:37:05;23.10;;;12.20;;
8060;SDS011;4073;42.626;25.386;2023-02-28T08:39:30;26.50;;;13.70;;
8060;SDS011;4073;42.626;25.386;2023-02-28T08:41:59;31.03;;;14.20;;
8060;SDS011;4073;42.626;25.386;2023-02-28T08:44:24;22.07;;;11.57;;
8060;SDS011;4073;42.626;25.386;2023-02-28T08:46:50;21.93;;;12.17;;
8060;SDS011;4073;42.626;25.386;2023-02-28T08:49:15;22.03;;;12.27;;
8060;SDS011;4073;42.626;25.386;2023-02-28T08:51:41;18.77;;;11.50;;
8060;SDS011;4073;42.626;25.386;2023-02-28T08:54:07;25.03;;;11.07;;
8060;SDS011;4073;42.626;25.386;2023-02-28T08:56:33;31.80;;;15.63;;
8060;SDS011;4073;42.626;25.386;2023-02-28T08:58:59;32.23;;;12.33;;
8060;SDS011;4073;42.626;25.386;2023-02-28T09:01:25;25.60;;;12.43;;
8060;SDS011;4073;42.626;25.386;2023-02-28T09:03:52;24.57;;;13.13;;
8060;SDS011;4073;42.626;25.386;2023-02-28T09:06:19;23.73;;;12.50;;
8060;SDS011;4073;42.626;25.386;2023-02-28T09:08:46;23.37;;;12.00;;
8060;SDS011;4073;42.626;25.386;2023-02-28T09:11:12;27.97;;;12.37;;
8060;SDS011;4073;42.626;25.386;2023-02-28T09:13:38;24.07;;;12.23;;
8060;SDS011;4073;42.626;25.386;2023-02-28T09:16:05;21.23;;;11.67;;
8060;SDS011;4073;42.626;25.386;2023-02-28T09:18:36;21.67;;;11.60;;
8060;SDS011;4073;42.626;25.386;2023-02-28T09:21:03;22.10;;;12.43;;
8060;SDS011;4073;42.626;25.386;2023-02-28T09:23:32;46.07;;;23.17;;
8060;SDS011;4073;42.626;25.386;2023-02-28T09:25:58;29.93;;;18.57;;
8060;SDS011;4073;42.626;25.386;2023-02-28T09:28:23;27.73;;;17.87;;
8060;SDS011;4073;42.626;25.386;2023-02-28T09:30:49;23.63;;;14.33;;
8060;SDS011;4073;42.626;25.386;2023-02-28T09:33:17;24.63;;;13.93;;
8060;SDS011;4073;42.626;25.386;2023-02-28T09:35:46;25.30;;;13.23;;
8060;SDS011;4073;42.626;25.386;2023-02-28T09:38:15;24.03;;;11.67;;
8060;SDS011;4073;42.626;25.386;2023-02-28T09:40:50;22.90;;;11.50;;
8060;SDS011;4073;42.626;25.386;2023-02-28T09:43:20;23.73;;;11.63;;
8060;SDS011;4073;42.626;25.386;2023-02-28T09:45:50;24.17;;;11.70;;
8060;SDS011;4073;42.626;25.386;2023-02-28T09:48:25;24.10;;;11.97;;
8060;SDS011;4073;42.626;25.386;2023-02-28T09:51:02;25.10;;;12.60;;
8060;SDS011;4073;42.626;25.386;2023-02-28T09:53:33;16.33;;;9.93;;
8060;SDS011;4073;42.626;25.386;2023-02-28T09:56:37;21.97;;;11.07;;
8060;SDS011;4073;42.626;25.386;2023-02-28T10:02:32;22.70;;;13.87;;
8060;SDS011;4073;42.626;25.386;2023-02-28T10:04:42;23.53;;;12.63;;
8060;SDS011;4073;42.626;25.386;2023-02-28T10:09:44;20.03;;;12.67;;
8060;SDS011;4073;42.626;25.386;2023-02-28T10:12:14;20.83;;;13.30;;
8060;SDS011;4073;42.626;25.386;2023-02-28T10:14:42;17.13;;;12.10;;
8060;SDS011;4073;42.626;25.386;2023-02-28T10:17:12;18.20;;;12.20;;
8060;SDS011;4073;42.626;25.386;2023-02-28T10:22:31;24.33;;;15.43;;
8060;SDS011;4073;42.626;25.386;2023-02-28T10:25:20;21.97;;;14.43;;
8060;SDS011;4073;42.626;25.386;2023-02-28T10:27:47;21.77;;;14.63;;
8060;SDS011;4073;42.626;25.386;2023-02-28T10:30:14;26.10;;;15.93;;
8060;SDS011;4073;42.626;25.386;2023-02-28T10:32:40;22.70;;;15.47;;
8060;SDS011;4073;42.626;25.386;2023-02-28T10:35:23;25.00;;;17.50;;
8060;SDS011;4073;42.626;25.386;2023-02-28T10:37:59;25.30;;;16.83;;
8060;SDS011;4073;42.626;25.386;2023-02-28T10:40:31;22.77;;;16.67;;
8060;SDS011;4073;42.626;25.386;2023-02-28T10:43:02;30.97;;;18.67;;
8060;SDS011;4073;42.626;25.386;2023-02-28T10:45:30;24.40;;;17.23;;
8060;SDS011;4073;42.626;25.386;2023-02-28T10:50:43;30.90;;;21.00;;
8060;SDS011;4073;42.626;25.386;2023-02-28T10:55:55;25.83;;;17.33;;
8060;SDS011;4073;42.626;25.386;2023-02-28T10:58:25;33.27;;;21.33;;
8060;SDS011;4073;42.626;25.386;2023-02-28T11:00:54;30.00;;;19.40;;
8060;SDS011;4073;42.626;25.386;2023-02-28T11:03:29;26.00;;;16.23;;
8060;SDS011;4073;42.626;25.386;2023-02-28T11:05:57;27.17;;;18.63;;
8060;SDS011;4073;42.626;25.386;2023-02-28T11:08:28;25.30;;;17.93;;
8060;SDS011;4073;42.626;25.386;2023-02-28T11:10:55;31.10;;;18.80;;
8060;SDS011;4073;42.626;25.386;2023-02-28T11:13:42;39.63;;;20.43;;
8060;SDS011;4073;42.626;25.386;2023-02-28T11:16:10;34.77;;;18.50;;
8060;SDS011;4073;42.626;25.386;2023-02-28T11:21:35;24.07;;;15.60;;
8060;SDS011;4073;42.626;25.386;2023-02-28T11:24:18;22.70;;;14.73;;
8060;SDS011;4073;42.626;25.386;2023-02-28T11:26:52;23.67;;;14.83;;
8060;SDS011;4073;42.626;25.386;2023-02-28T11:29:22;24.40;;;13.73;;
8060;SDS011;4073;42.626;25.386;2023-02-28T11:34:36;21.47;;;13.30;;
8060;SDS011;4073;42.626;25.386;2023-02-28T11:37:03;22.47;;;15.30;;
8060;SDS011;4073;42.626;25.386;2023-02-28T11:39:33;25.73;;;16.27;;
8060;SDS011;4073;42.626;25.386;2023-02-28T11:44:51;28.47;;;14.60;;
8060;SDS011;4073;42.626;25.386;2023-02-28T11:47:29;35.80;;;18.00;;
8060;SDS011;4073;42.626;25.386;2023-02-28T11:53:05;30.03;;;15.83;;
8060;SDS011;4073;42.626;25.386;2023-02-28T11:56:00;28.50;;;15.57;;
8060;SDS011;4073;42.626;25.386;2023-02-28T12:01:13;31.47;;;19.60;;
8060;SDS011;4073;42.626;25.386;2023-02-28T12:09:20;21.57;;;12.90;;
8060;SDS011;4073;42.626;25.386;2023-02-28T12:12:20;23.47;;;13.80;;
8060;SDS011;4073;42.626;25.386;2023-02-28T12:15:01;21.13;;;15.30;;
8060;SDS011;4073;42.626;25.386;2023-02-28T12:20:35;31.30;;;16.03;;
8060;SDS011;4073;42.626;25.386;2023-02-28T12:23:43;28.93;;;20.03;;
8060;SDS011;4073;42.626;25.386;2023-02-28T12:26:41;30.40;;;16.97;;
8060;SDS011;4073;42.626;25.386;2023-02-28T12:29:21;26.20;;;16.37;;
8060;SDS011;4073;42.626;25.386;2023-02-28T12:32:08;26.03;;;15.30;;
8060;SDS011;4073;42.626;25.386;2023-02-28T12:34:40;29.47;;;16.40;;
8060;SDS011;4073;42.626;25.386;2023-02-28T12:37:14;30.63;;;17.70;;
8060;SDS011;4073;42.626;25.386;2023-02-28T12:39:46;29.67;;;18.80;;
8060;SDS011;4073;42.626;25.386;2023-02-28T12:42:25;30.80;;;19.97;;
8060;SDS011;4073;42.626;25.386;2023-02-28T12:44:57;36.53;;;19.73;;
8060;SDS011;4073;42.626;25.386;2023-02-28T12:47:26;29.50;;;19.40;;
8060;SDS011;4073;42.626;25.386;2023-02-28T12:49:59;25.13;;;18.17;;
8060;SDS011;4073;42.626;25.386;2023-02-28T12:52:31;30.00;;;20.03;;
8060;SDS011;4073;42.626;25.386;2023-02-28T12:55:19;31.77;;;18.17;;
8060;SDS011;4073;42.626;25.386;2023-02-28T12:57:58;29.63;;;19.50;;
8060;SDS011;4073;42.626;25.386;2023-02-28T13:00:38;26.13;;;19.87;;
8060;SDS011;4073;42.626;25.386;2023-02-28T13:09:24;32.63;;;20.97;;
8060;SDS011;4073;42.626;25.386;2023-02-28T13:11:50;22.93;;;15.87;;
8060;SDS011;4073;42.626;25.386;2023-02-28T13:19:46;24.63;;;16.90;;
8060;SDS011;4073;42.626;25.386;2023-02-28T13:22:37;25.93;;;16.10;;
8060;SDS011;4073;42.626;25.386;2023-02-28T13:27:57;22.80;;;15.23;;
8060;SDS011;4073;42.626;25.386;2023-02-28T13:36:00;20.27;;;15.93;;
8060;SDS011;4073;42.626;25.386;2023-02-28T13:38:34;22.47;;;17.27;;
8060;SDS011;4073;42.626;25.386;2023-02-28T13:49:28;27.23;;;20.47;;
8060;SDS011;4073;42.626;25.386;2023-02-28T14:03:32;31.77;;;22.23;;
8060;SDS011;4073;42.626;25.386;2023-02-28T14:08:48;37.10;;;27.27;;
8060;SDS011;4073;42.626;25.386;2023-02-28T14:11:29;41.40;;;25.20;;
8060;SDS011;4073;42.626;25.386;2023-02-28T14:13:56;27.07;;;22.77;;
8060;SDS011;4073;42.626;25.386;2023-02-28T14:16:23;27.97;;;19.43;;
8060;SDS011;4073;42.626;25.386;2023-02-28T14:18:59;21.93;;;18.83;;
8060;SDS011;4073;42.626;25.386;2023-02-28T14:38:20;26.73;;;20.97;;
8060;SDS011;4073;42.626;25.386;2023-02-28T14:40:55;25.90;;;20.93;;
8060;SDS011;4073;42.626;25.386;2023-02-28T14:43:27;25.20;;;18.20;;
8060;SDS011;4073;42.626;25.386;2023-02-28T14:46:03;25.33;;;20.33;;
8060;SDS011;4073;42.626;25.386;2023-02-28T14:48:31;26.53;;;20.00;;
8060;SDS011;4073;42.626;25.386;2023-02-28T14:50:59;32.07;;;22.77;;
8060;SDS011;4073;42.626;25.386;2023-02-28T14:53:27;28.07;;;21.47;;
8060;SDS011;4073;42.626;25.386;2023-02-28T14:55:54;27.90;;;21.27;;
8060;SDS011;4073;42.626;25.386;2023-02-28T14:58:27;25.90;;;18.87;;
8060;SDS011;4073;42.626;25.386;2023-02-28T15:00:55;31.10;;;20.77;;
8060;SDS011;4073;42.626;25.386;2023-02-28T15:06:05;28.47;;;20.13;;
8060;SDS011;4073;42.626;25.386;2023-02-28T15:08:37;30.17;;;21.13;;
8060;SDS011;4073;42.626;25.386;2023-02-28T15:11:07;34.33;;;23.20;;
8060;SDS011;4073;42.626;25.386;2023-02-28T15:13:42;29.83;;;20.83;;
8060;SDS011;4073;42.626;25.386;2023-02-28T15:16:20;34.43;;;24.77;;
8060;SDS011;4073;42.626;25.386;2023-02-28T15:18:49;42.50;;;27.90;;
8060;SDS011;4073;42.626;25.386;2023-02-28T15:21:21;34.50;;;24.30;;
8060;SDS011;4073;42.626;25.386;2023-02-28T15:23:54;37.97;;;26.03;;
8060;SDS011;4073;42.626;25.386;2023-02-28T15:26:34;44.33;;;28.23;;
8060;SDS011;4073;42.626;25.386;2023-02-28T15:29:15;39.83;;;27.90;;
8060;SDS011;4073;42.626;25.386;2023-02-28T15:31:46;38.50;;;25.40;;
8060;SDS011;4073;42.626;25.386;2023-02-28T15:39:52;27.90;;;20.23;;
8060;SDS011;4073;42.626;25.386;2023-02-28T15:42:20;33.07;;;23.93;;
8060;SDS011;4073;42.626;25.386;2023-02-28T15:44:47;39.13;;;23.27;;
8060;SDS011;4073;42.626;25.386;2023-02-28T15:47:16;28.23;;;21.43;;
8060;SDS011;4073;42.626;25.386;2023-02-28T15:49:46;29.37;;;21.13;;
8060;SDS011;4073;42.626;25.386;2023-02-28T15:52:27;32.97;;;22.13;;
8060;SDS011;4073;42.626;25.386;2023-02-28T15:54:58;28.77;;;20.63;;
8060;SDS011;4073;42.626;25.386;2023-02-28T15:57:25;40.53;;;23.80;;
8060;SDS011;4073;42.626;25.386;2023-02-28T15:59:57;36.70;;;24.40;;
8060;SDS011;4073;42.626;25.386;2023-02-28T16:02:35;36.13;;;23.67;;
8060;SDS011;4073;42.626;25.386;2023-02-28T16:07:34;26.47;;;19.37;;
8060;SDS011;4073;42.626;25.386;2023-02-28T16:10:00;30.80;;;22.40;;
8060;SDS011;4073;42.626;25.386;2023-02-28T16:12:28;28.37;;;20.60;;
8060;SDS011;4073;42.626;25.386;2023-02-28T16:14:57;33.90;;;24.40;;
8060;SDS011;4073;42.626;25.386;2023-02-28T16:17:26;30.70;;;21.17;;
8060;SDS011;4073;42.626;25.386;2023-02-28T16:19:54;33.33;;;20.13;;
8060;SDS011;4073;42.626;25.386;2023-02-28T16:22:20;32.07;;;22.10;;
8060;SDS011;4073;42.626;25.386;2023-02-28T16:24:45;31.17;;;21.60;;
8060;SDS011;4073;42.626;25.386;2023-02-28T16:27:16;29.93;;;22.53;;
8060;SDS011;4073;42.626;25.386;2023-02-28T16:29:41;25.10;;;19.20;;
8060;SDS011;4073;42.626;25.386;2023-02-28T16:32:07;29.10;;;20.20;;
8060;SDS011;4073;42.626;25.386;2023-02-28T16:34:33;31.70;;;19.80;;
8060;SDS011;4073;42.626;25.386;2023-02-28T16:36:58;28.43;;;18.67;;
8060;SDS011;4073;42.626;25.386;2023-02-28T16:39:24;23.60;;;17.27;;
8060;SDS011;4073;42.626;25.386;2023-02-28T16:41:49;25.57;;;19.23;;
8060;SDS011;4073;42.626;25.386;2023-02-28T16:44:30;25.90;;;17.37;;
8060;SDS011;4073;42.626;25.386;2023-02-28T16:47:02;27.53;;;18.37;;
8060;SDS011;4073;42.626;25.386;2023-02-28T16:49:29;32.33;;;20.03;;
8060;SDS011;4073;42.626;25.386;2023-02-28T16:51:54;23.47;;;14.93;;
8060;SDS011;4073;42.626;25.386;2023-02-28T16:54:20;22.47;;;16.20;;
8060;SDS011;4073;42.626;25.386;2023-02-28T16:56:46;27.03;;;17.93;;
8060;SDS011;4073;42.626;25.386;2023-02-28T16:59:13;24.67;;;19.90;;
8060;SDS011;4073;42.626;25.386;2023-02-28T17:01:43;28.50;;;18.87;;
8060;SDS011;4073;42.626;25.386;2023-02-28T17:04:10;29.00;;;20.20;;
8060;SDS011;4073;42.626;25.386;2023-02-28T17:06:37;25.97;;;18.37;;
8060;SDS011;4073;42.626;25.386;2023-02-28T17:09:03;24.93;;;16.93;;